sensor_id;sensor_type;location;lat;lon;timestamp;pressure;altitude;pressure_sealevel;temperature;humidity
77590;BME280;66746;51.328;12.332;2023-05-14T00:01:17;100768.31;;;13.12;75.34
77590;BME280;66746;51.328;12.332;2023-05-14T00:03:44;100771.03;;;13.12;73.83
77590;BME280;66746;51.328;12.332;2023-05-14T00:06:10;100769.38;;;13.08;76.27
77590;BME280;66746;51.328;12.332;2023-05-14T00:08:38;100763.03;;;13.08;75.10
77590;BME280;66746;51.328;12.332;2023-05-14T00:11:04;100766.72;;;13.07;74.92
77590;BME280;66746;51.328;12.332;2023-05-14T00:13:31;100749.50;;;13.06;76.96
77590;BME280;66746;51.328;12.332;2023-05-14T00:15:57;100751.28;;;13.07;76.54
77590;BME280;66746;51.328;12.332;2023-05-14T00:18:23;100753.19;;;13.05;76.42
77590;BME280;66746;51.328;12.332;2023-05-14T00:20:50;100744.25;;;13.00;75.44
77590;BME280;66746;51.328;12.332;2023-05-14T00:23:17;100747.81;;;13.02;75.34
77590;BME280;66746;51.328;12.332;2023-05-14T00:25:44;100741.47;;;13.03;76.96
77590;BME280;66746;51.328;12.332;2023-05-14T00:28:11;100743.41;;;13.00;77.25
77590;BME280;66746;51.328;12.332;2023-05-14T00:30:37;100731.63;;;12.99;75.61
77590;BME280;66746;51.328;12.332;2023-05-14T00:33:04;100745.22;;;12.99;77.09
77590;BME280;66746;51.328;12.332;2023-05-14T00:35:31;100735.41;;;12.95;75.26
77590;BME280;66746;51.328;12.332;2023-05-14T00:37:57;100728.19;;;12.94;74.09
77590;BME280;66746;51.328;12.332;2023-05-14T00:40:25;100736.31;;;12.96;74.89
77590;BME280;66746;51.328;12.332;2023-05-14T00:42:53;100734.44;;;12.96;74.12
77590;BME280;66746;51.328;12.332;2023-05-14T00:45:20;100740.88;;;12.95;74.41
77590;BME280;66746;51.328;12.332;2023-05-14T00:47:47;100722.13;;;12.88;75.63
77590;BME280;66746;51.328;12.332;2023-05-14T00:50:15;100736.41;;;12.93;74.25
77590;BME280;66746;51.328;12.332;2023-05-14T00:52:41;100737.31;;;12.93;75.80
77590;BME280;66746;51.328;12.332;2023-05-14T00:55:09;100740.97;;;12.92;76.15
77590;BME280;66746;51.328;12.332;2023-05-14T00:57:36;100733.88;;;12.88;75.28
77590;BME280;66746;51.328;12.332;2023-05-14T01:00:05;100736.59;;;12.88;74.18
77590;BME280;66746;51.328;12.332;2023-05-14T01:02:32;100736.66;;;12.87;73.24
77590;BME280;66746;51.328;12.332;2023-05-14T01:04:59;100734.97;;;12.84;77.37
77590;BME280;66746;51.328;12.332;2023-05-14T01:07:36;100730.78;;;12.76;74.93
77590;BME280;66746;51.328;12.332;2023-05-14T01:10:08;100735.28;;;12.77;75.90
77590;BME280;66746;51.328;12.332;2023-05-14T01:12:42;100735.34;;;12.75;74.70
77590;BME280;66746;51.328;12.332;2023-05-14T01:15:17;100725.53;;;12.71;74.14
77590;BME280;66746;51.328;12.332;2023-05-14T01:17:51;100735.41;;;12.74;77.26
77590;BME280;66746;51.328;12.332;2023-05-14T01:20:19;100730.84;;;12.74;77.47
77590;BME280;66746;51.328;12.332;2023-05-14T01:22:47;100738.22;;;12.71;75.14
77590;BME280;66746;51.328;12.332;2023-05-14T01:25:14;100732.84;;;12.69;76.52
77590;BME280;66746;51.328;12.332;2023-05-14T01:27:44;100735.59;;;12.69;75.37
77590;BME280;66746;51.328;12.332;2023-05-14T01:30:18;100729.44;;;12.64;74.50
77590;BME280;66746;51.328;12.332;2023-05-14T01:32:50;100732.09;;;12.66;76.07
77590;BME280;66746;51.328;12.332;2023-05-14T01:35:20;100734.91;;;12.64;76.77
77590;BME280;66746;51.328;12.332;2023-05-14T01:37:49;100728.72;;;12.59;74.58
77590;BME280;66746;51.328;12.332;2023-05-14T01:40:16;100729.69;;;12.58;76.90
77590;BME280;66746;51.328;12.332;2023-05-14T01:42:43;100719.81;;;12.56;77.34
77590;BME280;66746;51.328;12.332;2023-05-14T01:45:10;100721.59;;;12.57;76.36
77590;BME280;66746;51.328;12.332;2023-05-14T01:47:37;100717.16;;;12.54;78.79
77590;BME280;66746;51.328;12.332;2023-05-14T01:50:04;100709.94;;;12.53;75.62
77590;BME280;66746;51.328;12.332;2023-05-14T01:52:31;100709.09;;;12.51;76.45
77590;BME280;66746;51.328;12.332;2023-05-14T01:54:59;100706.38;;;12.51;76.06
77590;BME280;66746;51.328;12.332;2023-05-14T01:57:25;100709.25;;;12.48;73.64
77590;BME280;66746;51.328;12.332;2023-05-14T01:59:52;100710.19;;;12.47;75.98
77590;BME280;66746;51.328;12.332;2023-05-14T02:02:18;100710.13;;;12.49;76.43
77590;BME280;66746;51.328;12.332;2023-05-14T02:04:45;100715.66;;;12.47;75.03
77590;BME280;66746;51.328;12.332;2023-05-14T02:07:11;100711.13;;;12.46;75.48
77590;BME280;66746;51.328;12.332;2023-05-14T02:09:38;100712.19;;;12.42;75.77
77590;BME280;66746;51.328;12.332;2023-05-14T02:12:07;100708.41;;;12.46;75.88
77590;BME280;66746;51.328;12.332;2023-05-14T02:14:33;100711.13;;;12.46;78.30
77590;BME280;66746;51.328;12.332;2023-05-14T02:17:00;100695.94;;;12.40;75.54
77590;BME280;66746;51.328;12.332;2023-05-14T02:19:26;100708.31;;;12.49;76.11
77590;BME280;66746;51.328;12.332;2023-05-14T02:21:53;100701.22;;;12.45;76.65
77590;BME280;66746;51.328;12.332;2023-05-14T02:24:19;100703.94;;;12.45;75.56
77590;BME280;66746;51.328;12.332;2023-05-14T02:26:46;100701.22;;;12.45;75.49
77590;BME280;66746;51.328;12.332;2023-05-14T02:29:14;100702.03;;;12.47;75.61
77590;BME280;66746;51.328;12.332;2023-05-14T02:31:40;100701.22;;;12.45;78.16
77590;BME280;66746;51.328;12.332;2023-05-14T02:34:07;100695.78;;;12.45;76.90
77590;BME280;66746;51.328;12.332;2023-05-14T02:36:33;100714.75;;;12.47;74.75
77590;BME280;66746;51.328;12.332;2023-05-14T02:39:00;100711.13;;;12.46;76.35
77590;BME280;66746;51.328;12.332;2023-05-14T02:41:26;100712.09;;;12.45;75.07
77590;BME280;66746;51.328;12.332;2023-05-14T02:43:53;100694.16;;;12.39;75.37
77590;BME280;66746;51.328;12.332;2023-05-14T02:46:21;100697.72;;;12.41;76.07
77590;BME280;66746;51.328;12.332;2023-05-14T02:48:47;100687.84;;;12.39;78.22
77590;BME280;66746;51.328;12.332;2023-05-14T02:51:14;100684.31;;;12.37;75.08
77590;BME280;66746;51.328;12.332;2023-05-14T02:53:40;100690.69;;;12.36;76.68
77590;BME280;66746;51.328;12.332;2023-05-14T02:56:07;100685.25;;;12.36;76.39
77590;BME280;66746;51.328;12.332;2023-05-14T02:58:33;100688.94;;;12.35;77.76
77590;BME280;66746;51.328;12.332;2023-05-14T03:01:00;100687.28;;;12.31;76.37
77590;BME280;66746;51.328;12.332;2023-05-14T03:03:29;100681.84;;;12.31;77.79
77590;BME280;66746;51.328;12.332;2023-05-14T03:05:56;100687.19;;;12.32;76.19
77590;BME280;66746;51.328;12.332;2023-05-14T03:08:23;100692.72;;;12.31;75.71
77590;BME280;66746;51.328;12.332;2023-05-14T03:10:49;100687.38;;;12.28;78.02
77590;BME280;66746;51.328;12.332;2023-05-14T03:13:15;100675.81;;;12.23;76.77
77590;BME280;66746;51.328;12.332;2023-05-14T03:15:42;100677.75;;;12.19;76.28
77590;BME280;66746;51.328;12.332;2023-05-14T03:18:08;100687.59;;;12.22;77.38
77590;BME280;66746;51.328;12.332;2023-05-14T03:20:36;100685.03;;;12.19;77.40
77590;BME280;66746;51.328;12.332;2023-05-14T03:23:04;100686.91;;;12.17;76.72
77590;BME280;66746;51.328;12.332;2023-05-14T03:25:30;100688.75;;;12.16;76.47
77590;BME280;66746;51.328;12.332;2023-05-14T03:27:57;100680.59;;;12.16;79.16
77590;BME280;66746;51.328;12.332;2023-05-14T03:30:23;100686.91;;;12.17;76.77
77590;BME280;66746;51.328;12.332;2023-05-14T03:32:50;100681.59;;;12.14;77.05
77590;BME280;66746;51.328;12.332;2023-05-14T03:35:17;100671.66;;;12.13;75.36
77590;BME280;66746;51.328;12.332;2023-05-14T03:37:45;100677.09;;;12.13;75.88
77590;BME280;66746;51.328;12.332;2023-05-14T03:40:11;100672.72;;;12.09;76.42
77590;BME280;66746;51.328;12.332;2023-05-14T03:42:38;100674.47;;;12.11;78.36
77590;BME280;66746;51.328;12.332;2023-05-14T03:45:06;100672.72;;;12.09;76.90
77590;BME280;66746;51.328;12.332;2023-05-14T03:47:32;100677.25;;;12.10;77.55
77590;BME280;66746;51.328;12.332;2023-05-14T03:50:00;100675.44;;;12.09;77.85
77590;BME280;66746;51.328;12.332;2023-05-14T03:52:26;100666.59;;;12.04;77.27
77590;BME280;66746;51.328;12.332;2023-05-14T03:54:54;100668.28;;;12.06;76.03
77590;BME280;66746;51.328;12.332;2023-05-14T03:57:20;100666.41;;;12.08;77.65
77590;BME280;66746;51.328;12.332;2023-05-14T03:59:47;100664.56;;;12.09;76.63
77590;BME280;66746;51.328;12.332;2023-05-14T04:02:13;100665.41;;;12.11;78.36
77590;BME280;66746;51.328;12.332;2023-05-14T04:04:40;100655.50;;;12.10;79.20
77590;BME280;66746;51.328;12.332;2023-05-14T04:07:06;100665.34;;;12.12;77.07
77590;BME280;66746;51.328;12.332;2023-05-14T04:09:33;100658.00;;;12.14;77.85
77590;BME280;66746;51.328;12.332;2023-05-14T04:12:01;100660.66;;;12.16;76.59
77590;BME280;66746;51.328;12.332;2023-05-14T04:14:28;100669.66;;;12.18;76.16
77590;BME280;66746;51.328;12.332;2023-05-14T04:16:55;100665.84;;;12.22;77.50
77590;BME280;66746;51.328;12.332;2023-05-14T04:19:21;100660.41;;;12.22;77.44
77590;BME280;66746;51.328;12.332;2023-05-14T04:21:47;100662.06;;;12.26;77.26
77590;BME280;66746;51.328;12.332;2023-05-14T04:24:15;100661.00;;;12.30;77.64
77590;BME280;66746;51.328;12.332;2023-05-14T04:26:42;100657.22;;;12.34;78.27
77590;BME280;66746;51.328;12.332;2023-05-14T04:29:10;100663.56;;;12.34;77.61
77590;BME280;66746;51.328;12.332;2023-05-14T04:31:36;100657.13;;;12.37;75.79
77590;BME280;66746;51.328;12.332;2023-05-14T04:34:03;100661.50;;;12.41;75.84
77590;BME280;66746;51.328;12.332;2023-05-14T04:36:30;100661.34;;;12.44;76.36
77590;BME280;66746;51.328;12.332;2023-05-14T04:38:56;100659.38;;;12.48;77.72
77590;BME280;66746;51.328;12.332;2023-05-14T04:41:23;100657.41;;;12.51;79.72
77590;BME280;66746;51.328;12.332;2023-05-14T04:43:49;100653.63;;;12.55;77.16
77590;BME280;66746;51.328;12.332;2023-05-14T04:46:17;100661.59;;;12.60;76.15
77590;BME280;66746;51.328;12.332;2023-05-14T04:48:43;100659.59;;;12.65;77.93
77590;BME280;66746;51.328;12.332;2023-05-14T04:51:10;100661.19;;;12.70;77.27
77590;BME280;66746;51.328;12.332;2023-05-14T04:53:36;100660.09;;;12.74;75.91
77590;BME280;66746;51.328;12.332;2023-05-14T04:56:03;100661.59;;;12.81;75.31
77590;BME280;66746;51.328;12.332;2023-05-14T04:58:29;100656.91;;;12.85;73.97
77590;BME280;66746;51.328;12.332;2023-05-14T05:00:59;100655.66;;;12.93;75.45
77590;BME280;66746;51.328;12.332;2023-05-14T05:03:26;100651.84;;;12.97;75.28
77590;BME280;66746;51.328;12.332;2023-05-14T05:05:53;100662.25;;;13.09;75.48
77590;BME280;66746;51.328;12.332;2023-05-14T05:08:19;100659.00;;;13.21;77.32
77590;BME280;66746;51.328;12.332;2023-05-14T05:10:46;100649.41;;;13.33;76.23
77590;BME280;66746;51.328;12.332;2023-05-14T05:13:12;100649.72;;;13.46;77.68
77590;BME280;66746;51.328;12.332;2023-05-14T05:15:39;100650.19;;;13.55;77.64
77590;BME280;66746;51.328;12.332;2023-05-14T05:18:05;100652.44;;;13.66;74.51
77590;BME280;66746;51.328;12.332;2023-05-14T05:20:33;100655.69;;;13.94;73.74
77590;BME280;66746;51.328;12.332;2023-05-14T05:23:00;100657.41;;;14.15;72.11
77590;BME280;66746;51.328;12.332;2023-05-14T05:25:26;100655.81;;;14.48;70.76
77590;BME280;66746;51.328;12.332;2023-05-14T05:27:53;100647.75;;;15.34;68.81
77590;BME280;66746;51.328;12.332;2023-05-14T05:30:19;100649.75;;;16.62;64.67
77590;BME280;66746;51.328;12.332;2023-05-14T05:32:45;100636.09;;;17.67;59.69
77590;BME280;66746;51.328;12.332;2023-05-14T05:35:12;100635.22;;;18.92;56.75
77590;BME280;66746;51.328;12.332;2023-05-14T05:37:40;100621.19;;;20.12;54.16
77590;BME280;66746;51.328;12.332;2023-05-14T05:40:07;100619.13;;;21.01;50.27
77590;BME280;66746;51.328;12.332;2023-05-14T05:42:34;100625.13;;;21.53;46.51
77590;BME280;66746;51.328;12.332;2023-05-14T05:45:00;100620.00;;;21.94;47.81
77590;BME280;66746;51.328;12.332;2023-05-14T05:47:27;100623.41;;;22.31;45.86
77590;BME280;66746;51.328;12.332;2023-05-14T05:49:53;100624.06;;;22.57;44.12
77590;BME280;66746;51.328;12.332;2023-05-14T05:52:20;100621.03;;;22.49;42.87
77590;BME280;66746;51.328;12.332;2023-05-14T05:54:47;100630.56;;;22.45;47.33
77590;BME280;66746;51.328;12.332;2023-05-14T05:57:14;100624.53;;;22.51;45.55
77590;BME280;66746;51.328;12.332;2023-05-14T05:59:40;100623.16;;;22.34;46.16
77590;BME280;66746;51.328;12.332;2023-05-14T06:02:07;100619.25;;;22.15;44.57
77590;BME280;66746;51.328;12.332;2023-05-14T06:04:33;100623.25;;;22.11;45.05
77590;BME280;66746;51.328;12.332;2023-05-14T06:07:00;100622.41;;;22.32;48.06
77590;BME280;66746;51.328;12.332;2023-05-14T06:09:26;100619.75;;;22.09;43.85
77590;BME280;66746;51.328;12.332;2023-05-14T06:11:54;100622.00;;;21.92;47.39
77590;BME280;66746;51.328;12.332;2023-05-14T06:14:20;100629.63;;;21.54;47.58
77590;BME280;66746;51.328;12.332;2023-05-14T06:16:47;100616.94;;;21.17;47.16
77590;BME280;66746;51.328;12.332;2023-05-14T06:19:13;100625.56;;;20.89;46.68
77590;BME280;66746;51.328;12.332;2023-05-14T06:21:40;100623.59;;;20.78;48.27
77590;BME280;66746;51.328;12.332;2023-05-14T06:24:07;100630.31;;;20.87;51.85
77590;BME280;66746;51.328;12.332;2023-05-14T06:26:33;100623.09;;;20.61;49.34
77590;BME280;66746;51.328;12.332;2023-05-14T06:29:01;100622.28;;;20.10;48.16
77590;BME280;66746;51.328;12.332;2023-05-14T06:31:28;100626.91;;;20.09;54.36
77590;BME280;66746;51.328;12.332;2023-05-14T06:33:54;100625.13;;;19.58;51.71
77590;BME280;66746;51.328;12.332;2023-05-14T06:36:21;100614.03;;;19.20;50.02
77590;BME280;66746;51.328;12.332;2023-05-14T06:38:47;100621.50;;;19.31;52.03
77590;BME280;66746;51.328;12.332;2023-05-14T06:41:14;100623.72;;;19.26;55.69
77590;BME280;66746;51.328;12.332;2023-05-14T06:43:40;100622.00;;;19.50;55.09
77590;BME280;66746;51.328;12.332;2023-05-14T06:46:08;100617.44;;;19.63;50.76
77590;BME280;66746;51.328;12.332;2023-05-14T06:48:34;100611.94;;;19.63;54.99
77590;BME280;66746;51.328;12.332;2023-05-14T06:51:01;100611.50;;;19.69;57.24
77590;BME280;66746;51.328;12.332;2023-05-14T06:53:27;100605.75;;;19.72;49.39
77590;BME280;66746;51.328;12.332;2023-05-14T06:55:53;100610.16;;;19.87;51.62
77590;BME280;66746;51.328;12.332;2023-05-14T06:58:20;100610.16;;;19.87;53.04
77590;BME280;66746;51.328;12.332;2023-05-14T07:00:47;100609.53;;;19.96;56.43
77590;BME280;66746;51.328;12.332;2023-05-14T07:03:14;100606.41;;;20.13;56.78
77590;BME280;66746;51.328;12.332;2023-05-14T07:05:41;100591.00;;;19.86;50.39
77590;BME280;66746;51.328;12.332;2023-05-14T07:08:07;100602.47;;;19.67;51.03
77590;BME280;66746;51.328;12.332;2023-05-14T07:10:34;100601.91;;;19.87;55.50
77590;BME280;66746;51.328;12.332;2023-05-14T07:13:00;100603.97;;;20.09;57.70
77590;BME280;66746;51.328;12.332;2023-05-14T07:15:27;100596.94;;;20.17;52.42
77590;BME280;66746;51.328;12.332;2023-05-14T07:17:53;100601.50;;;20.18;50.25
77590;BME280;66746;51.328;12.332;2023-05-14T07:20:21;100589.28;;;20.22;49.81
77590;BME280;66746;51.328;12.332;2023-05-14T07:22:48;100589.88;;;20.13;47.57
77590;BME280;66746;51.328;12.332;2023-05-14T07:25:15;100582.63;;;20.12;55.34
77590;BME280;66746;51.328;12.332;2023-05-14T07:27:41;100584.50;;;20.24;55.04
77590;BME280;66746;51.328;12.332;2023-05-14T07:30:08;100585.28;;;20.01;50.86
77590;BME280;66746;51.328;12.332;2023-05-14T07:32:35;100572.06;;;19.94;49.09
77590;BME280;66746;51.328;12.332;2023-05-14T07:35:01;100571.94;;;20.08;58.13
77590;BME280;66746;51.328;12.332;2023-05-14T07:37:29;100568.97;;;20.23;49.02
77590;BME280;66746;51.328;12.332;2023-05-14T07:39:55;100572.44;;;20.51;54.58
77590;BME280;66746;51.328;12.332;2023-05-14T07:42:22;100559.88;;;20.47;49.89
77590;BME280;66746;51.328;12.332;2023-05-14T07:45:01;100573.94;;;20.67;50.98
77590;BME280;66746;51.328;12.332;2023-05-14T07:47:28;100564.22;;;20.62;53.82
77590;BME280;66746;51.328;12.332;2023-05-14T07:49:55;100569.09;;;20.58;49.18
77590;BME280;66746;51.328;12.332;2023-05-14T07:52:22;100568.81;;;20.74;49.76
77590;BME280;66746;51.328;12.332;2023-05-14T07:54:51;100556.63;;;20.89;54.07
77590;BME280;66746;51.328;12.332;2023-05-14T07:57:17;100557.59;;;20.88;50.06
77590;BME280;66746;51.328;12.332;2023-05-14T07:59:44;100556.38;;;20.92;49.33
77590;BME280;66746;51.328;12.332;2023-05-14T08:02:10;100562.53;;;20.95;49.67
77590;BME280;66746;51.328;12.332;2023-05-14T08:04:37;100556.16;;;20.95;49.07
77590;BME280;66746;51.328;12.332;2023-05-14T08:07:05;100553.63;;;20.92;49.31
77590;BME280;66746;51.328;12.332;2023-05-14T08:09:32;100553.50;;;20.93;51.90
77590;BME280;66746;51.328;12.332;2023-05-14T08:12:00;100548.63;;;20.50;47.27
77590;BME280;66746;51.328;12.332;2023-05-14T08:14:26;100552.88;;;20.17;52.20
77590;BME280;66746;51.328;12.332;2023-05-14T08:16:53;100544.69;;;20.41;50.99
77590;BME280;66746;51.328;12.332;2023-05-14T08:19:20;100548.63;;;20.50;50.96
77590;BME280;66746;51.328;12.332;2023-05-14T08:21:46;100543.19;;;20.61;49.56
77590;BME280;66746;51.328;12.332;2023-05-14T08:24:17;100533.69;;;20.65;45.47
77590;BME280;66746;51.328;12.332;2023-05-14T08:26:46;100533.28;;;20.82;48.95
77590;BME280;66746;51.328;12.332;2023-05-14T08:29:13;100525.53;;;21.10;45.00
77590;BME280;66746;51.328;12.332;2023-05-14T08:31:42;100534.28;;;21.39;45.46
77590;BME280;66746;51.328;12.332;2023-05-14T08:34:08;100536.81;;;21.53;47.15
77590;BME280;66746;51.328;12.332;2023-05-14T08:36:35;100535.31;;;21.60;42.28
77590;BME280;66746;51.328;12.332;2023-05-14T08:39:01;100532.81;;;21.68;45.90
77590;BME280;66746;51.328;12.332;2023-05-14T08:41:28;100530.56;;;21.62;46.59
77590;BME280;66746;51.328;12.332;2023-05-14T08:44:00;100531.16;;;21.44;47.29
77590;BME280;66746;51.328;12.332;2023-05-14T08:46:33;100526.41;;;21.57;51.52
77590;BME280;66746;51.328;12.332;2023-05-14T08:49:09;100524.19;;;21.73;45.37
77590;BME280;66746;51.328;12.332;2023-05-14T08:51:38;100510.72;;;21.57;46.34
77590;BME280;66746;51.328;12.332;2023-05-14T08:54:05;100507.91;;;21.24;47.06
77590;BME280;66746;51.328;12.332;2023-05-14T08:56:32;100506.75;;;21.27;46.72
77590;BME280;66746;51.328;12.332;2023-05-14T08:58:58;100503.03;;;21.28;45.68
77590;BME280;66746;51.328;12.332;2023-05-14T09:01:25;100507.47;;;21.74;46.28
77590;BME280;66746;51.328;12.332;2023-05-14T09:03:53;100505.97;;;21.70;51.17
77590;BME280;66746;51.328;12.332;2023-05-14T09:06:20;100503.13;;;22.16;50.64
77590;BME280;66746;51.328;12.332;2023-05-14T09:08:47;100496.13;;;22.44;42.18
77590;BME280;66746;51.328;12.332;2023-05-14T09:11:13;100501.72;;;22.11;46.24
77590;BME280;66746;51.328;12.332;2023-05-14T09:13:40;100487.41;;;22.17;42.76
77590;BME280;66746;51.328;12.332;2023-05-14T09:16:06;100500.69;;;22.34;41.76
77590;BME280;66746;51.328;12.332;2023-05-14T09:18:34;100483.84;;;22.37;48.07
77590;BME280;66746;51.328;12.332;2023-05-14T09:21:03;100491.94;;;22.18;45.15
77590;BME280;66746;51.328;12.332;2023-05-14T09:23:31;100499.94;;;22.21;46.46
77590;BME280;66746;51.328;12.332;2023-05-14T09:25:57;100486.56;;;22.48;46.50
77590;BME280;66746;51.328;12.332;2023-05-14T09:28:24;100487.81;;;22.55;43.42
77590;BME280;66746;51.328;12.332;2023-05-14T09:30:51;100493.28;;;22.23;44.14
77590;BME280;66746;51.328;12.332;2023-05-14T09:33:25;100489.03;;;21.75;43.82
77590;BME280;66746;51.328;12.332;2023-05-14T09:35:54;100493.09;;;21.36;52.52
77590;BME280;66746;51.328;12.332;2023-05-14T09:38:27;100491.03;;;21.05;47.24
77590;BME280;66746;51.328;12.332;2023-05-14T09:40:54;100488.09;;;20.72;46.46
77590;BME280;66746;51.328;12.332;2023-05-14T09:43:20;100490.78;;;20.50;48.13
77590;BME280;66746;51.328;12.332;2023-05-14T09:45:47;100482.59;;;20.24;51.94
77590;BME280;66746;51.328;12.332;2023-05-14T09:48:13;100485.69;;;20.07;46.55
77590;BME280;66746;51.328;12.332;2023-05-14T09:50:41;100478.13;;;19.98;44.46
77590;BME280;66746;51.328;12.332;2023-05-14T09:53:07;100459.16;;;20.43;49.10
77590;BME280;66746;51.328;12.332;2023-05-14T09:55:36;100471.97;;;20.44;50.67
77590;BME280;66746;51.328;12.332;2023-05-14T09:58:03;100466.72;;;20.15;45.44
77590;BME280;66746;51.328;12.332;2023-05-14T10:00:30;100460.91;;;20.07;47.69
77590;BME280;66746;51.328;12.332;2023-05-14T10:02:57;100467.34;;;19.95;48.68
77590;BME280;66746;51.328;12.332;2023-05-14T10:05:24;100464.97;;;20.27;47.59
77590;BME280;66746;51.328;12.332;2023-05-14T10:07:53;100457.75;;;20.61;54.01
77590;BME280;66746;51.328;12.332;2023-05-14T10:10:25;100458.81;;;20.23;47.22
77590;BME280;66746;51.328;12.332;2023-05-14T10:12:57;100458.63;;;20.01;47.98
77590;BME280;66746;51.328;12.332;2023-05-14T10:15:32;100453.84;;;19.80;53.74
77590;BME280;66746;51.328;12.332;2023-05-14T10:18:05;100454.53;;;19.58;49.71
77590;BME280;66746;51.328;12.332;2023-05-14T10:20:33;100455.22;;;19.36;52.80
77590;BME280;66746;51.328;12.332;2023-05-14T10:23:16;100440.22;;;19.28;46.59
77590;BME280;66746;51.328;12.332;2023-05-14T10:25:43;100435.19;;;19.22;48.90
77590;BME280;66746;51.328;12.332;2023-05-14T10:28:12;100440.03;;;19.18;51.13
77590;BME280;66746;51.328;12.332;2023-05-14T10:30:43;100426.81;;;19.11;51.04
77590;BME280;66746;51.328;12.332;2023-05-14T10:33:11;100434.31;;;19.09;53.37
77590;BME280;66746;51.328;12.332;2023-05-14T10:35:51;100428.34;;;19.02;50.86
77590;BME280;66746;51.328;12.332;2023-05-14T10:38:22;100430.44;;;18.99;50.87
77590;BME280;66746;51.328;12.332;2023-05-14T10:40:48;100431.66;;;18.95;51.42
77590;BME280;66746;51.328;12.332;2023-05-14T10:43:20;100426.16;;;18.95;52.79
77590;BME280;66746;51.328;12.332;2023-05-14T10:45:48;100426.16;;;18.95;57.43
77590;BME280;66746;51.328;12.332;2023-05-14T10:48:15;100427.00;;;18.95;55.96
77590;BME280;66746;51.328;12.332;2023-05-14T10:50:42;100418.88;;;18.94;53.13
77590;BME280;66746;51.328;12.332;2023-05-14T10:53:11;100410.75;;;18.92;50.51
77590;BME280;66746;51.328;12.332;2023-05-14T10:55:38;100413.94;;;18.99;54.73
77590;BME280;66746;51.328;12.332;2023-05-14T10:58:04;100412.41;;;19.20;51.40
77590;BME280;66746;51.328;12.332;2023-05-14T11:00:34;100405.16;;;19.93;46.12
77590;BME280;66746;51.328;12.332;2023-05-14T11:03:03;100407.84;;;20.05;51.49
77590;BME280;66746;51.328;12.332;2023-05-14T11:05:30;100404.78;;;19.97;46.10
77590;BME280;66746;51.328;12.332;2023-05-14T11:07:58;100399.75;;;19.91;45.67
77590;BME280;66746;51.328;12.332;2023-05-14T11:10:26;100406.41;;;19.76;47.30
77590;BME280;66746;51.328;12.332;2023-05-14T11:12:52;100397.84;;;19.68;48.00
77590;BME280;66746;51.328;12.332;2023-05-14T11:15:20;100396.53;;;19.61;45.95
77590;BME280;66746;51.328;12.332;2023-05-14T11:17:51;100403.47;;;19.54;45.80
77590;BME280;66746;51.328;12.332;2023-05-14T11:20:19;100396.44;;;19.50;49.03
77590;BME280;66746;51.328;12.332;2023-05-14T11:22:46;100395.03;;;19.45;46.19
77590;BME280;66746;51.328;12.332;2023-05-14T11:25:14;100399.09;;;19.39;47.67
77590;BME280;66746;51.328;12.332;2023-05-14T11:27:42;100396.69;;;19.34;47.54
77590;BME280;66746;51.328;12.332;2023-05-14T11:30:12;100395.81;;;19.34;46.24
77590;BME280;66746;51.328;12.332;2023-05-14T11:32:38;100394.81;;;19.35;51.24
77590;BME280;66746;51.328;12.332;2023-05-14T11:35:07;100390.31;;;19.34;47.60
77590;BME280;66746;51.328;12.332;2023-05-14T11:37:34;100393.06;;;19.34;50.09
77590;BME280;66746;51.328;12.332;2023-05-14T11:40:00;100394.69;;;19.36;50.79
77590;BME280;66746;51.328;12.332;2023-05-14T11:42:27;100388.75;;;19.30;50.35
77590;BME280;66746;51.328;12.332;2023-05-14T11:44:53;100385.25;;;19.28;50.47
77590;BME280;66746;51.328;12.332;2023-05-14T11:47:20;100385.59;;;19.36;51.32
77590;BME280;66746;51.328;12.332;2023-05-14T11:49:49;100386.13;;;19.41;49.52
77590;BME280;66746;51.328;12.332;2023-05-14T11:52:27;100383.16;;;19.44;48.11
77590;BME280;66746;51.328;12.332;2023-05-14T11:55:09;100378.13;;;19.38;49.29
77590;BME280;66746;51.328;12.332;2023-05-14T11:57:50;100381.47;;;19.29;51.43
77590;BME280;66746;51.328;12.332;2023-05-14T12:00:18;100381.94;;;19.23;51.06
77590;BME280;66746;51.328;12.332;2023-05-14T12:02:46;100385.44;;;19.25;51.16
77590;BME280;66746;51.328;12.332;2023-05-14T12:05:13;100380.84;;;19.25;51.32
77590;BME280;66746;51.328;12.332;2023-05-14T12:07:43;100384.25;;;19.04;49.74
77590;BME280;66746;51.328;12.332;2023-05-14T12:10:10;100377.34;;;19.11;52.80
77590;BME280;66746;51.328;12.332;2023-05-14T12:12:37;100375.56;;;19.10;49.62
77590;BME280;66746;51.328;12.332;2023-05-14T12:15:10;100363.59;;;19.11;47.95
77590;BME280;66746;51.328;12.332;2023-05-14T12:17:36;100372.69;;;19.11;54.40
77590;BME280;66746;51.328;12.332;2023-05-14T12:20:04;100366.09;;;19.14;53.80
77590;BME280;66746;51.328;12.332;2023-05-14T12:22:33;100363.69;;;19.22;50.94
77590;BME280;66746;51.328;12.332;2023-05-14T12:25:10;100368.75;;;19.28;50.21
77590;BME280;66746;51.328;12.332;2023-05-14T12:27:36;100361.03;;;19.33;48.19
77590;BME280;66746;51.328;12.332;2023-05-14T12:30:04;100362.59;;;19.37;50.51
77590;BME280;66746;51.328;12.332;2023-05-14T12:32:34;100351.78;;;19.47;49.83
77590;BME280;66746;51.328;12.332;2023-05-14T12:35:03;100353.31;;;19.51;49.15
77590;BME280;66746;51.328;12.332;2023-05-14T12:37:30;100360.34;;;19.55;49.21
77590;BME280;66746;51.328;12.332;2023-05-14T12:39:57;100362.97;;;19.56;52.35
77590;BME280;66746;51.328;12.332;2023-05-14T12:42:24;100355.66;;;19.44;50.32